sensor_id;sensor_type;location;lat;lon;timestamp;pressure;altitude;pressure_sealevel;temperature
67509;BMP280;54354;44.724;11.284;2022-12-07T00:01:12;101420.97;;;13.83
67509;BMP280;54354;44.724;11.284;2022-12-07T00:03:39;101422.13;;;13.82
67509;BMP280;54354;44.724;11.284;2022-12-07T00:06:06;101424.78;;;13.82
67509;BMP280;54354;44.724;11.284;2022-12-07T00:08:32;101414.47;;;13.84
67509;BMP280;54354;44.724;11.284;2022-12-07T00:11:08;101415.66;;;13.83
67509;BMP280;54354;44.724;11.284;2022-12-07T00:13:34;101410.94;;;13.91
67509;BMP280;54354;44.724;11.284;2022-12-07T00:16:02;101417.41;;;13.90
67509;BMP280;54354;44.724;11.284;2022-12-07T00:18:28;101405.59;;;13.91
67509;BMP280;54354;44.724;11.284;2022-12-07T00:20:59;101408.31;;;13.87
67509;BMP280;54354;44.724;11.284;2022-12-07T00:23:25;101413.59;;;13.91
67509;BMP280;54354;44.724;11.284;2022-12-07T00:25:51;101411.75;;;13.88
67509;BMP280;54354;44.724;11.284;2022-12-07T00:28:16;101403.09;;;13.84
67509;BMP280;54354;44.724;11.284;2022-12-07T00:30:42;101407.31;;;13.81
67509;BMP280;54354;44.724;11.284;2022-12-07T00:33:07;101400.16;;;13.78
67509;BMP280;54354;44.724;11.284;2022-12-07T00:35:33;101395.22;;;13.76
67509;BMP280;54354;44.724;11.284;2022-12-07T00:37:58;101396.06;;;13.73
67509;BMP280;54354;44.724;11.284;2022-12-07T00:40:24;101391.06;;;13.75
67509;BMP280;54354;44.724;11.284;2022-12-07T00:42:49;101406.22;;;13.78
67509;BMP280;54354;44.724;11.284;2022-12-07T00:45:15;101408.13;;;13.78
67509;BMP280;54354;44.724;11.284;2022-12-07T00:47:41;101403.56;;;13.78
67509;BMP280;54354;44.724;11.284;2022-12-07T00:50:07;101397.13;;;13.76
67509;BMP280;54354;44.724;11.284;2022-12-07T00:52:32;101401.66;;;13.79
67509;BMP280;54354;44.724;11.284;2022-12-07T00:54:58;101406.97;;;13.79
67509;BMP280;54354;44.724;11.284;2022-12-07T00:57:23;101398.91;;;13.83
67509;BMP280;54354;44.724;11.284;2022-12-07T00:59:49;101407.25;;;13.85
67509;BMP280;54354;44.724;11.284;2022-12-07T01:02:14;101399.25;;;13.85
67509;BMP280;54354;44.724;11.284;2022-12-07T01:04:40;101396.22;;;13.86
67509;BMP280;54354;44.724;11.284;2022-12-07T01:07:05;101396.22;;;13.86
67509;BMP280;54354;44.724;11.284;2022-12-07T01:09:31;101379.88;;;13.84
67509;BMP280;54354;44.724;11.284;2022-12-07T01:11:56;101376.47;;;13.84
67509;BMP280;54354;44.724;11.284;2022-12-07T01:14:22;101376.47;;;13.84
67509;BMP280;54354;44.724;11.284;2022-12-07T01:16:47;101377.13;;;13.88
67509;BMP280;54354;44.724;11.284;2022-12-07T01:19:13;101373.31;;;13.89
67509;BMP280;54354;44.724;11.284;2022-12-07T01:21:38;101381.25;;;13.92
67509;BMP280;54354;44.724;11.284;2022-12-07T01:24:07;101374.41;;;13.91
67509;BMP280;54354;44.724;11.284;2022-12-07T01:26:33;101376.94;;;13.98
67509;BMP280;54354;44.724;11.284;2022-12-07T01:28:58;101381.00;;;14.03
67509;BMP280;54354;44.724;11.284;2022-12-07T01:31:27;101376.44;;;14.03
67509;BMP280;54354;44.724;11.284;2022-12-07T01:33:55;101383.28;;;14.04
67509;BMP280;54354;44.724;11.284;2022-12-07T01:36:29;101382.81;;;14.10
67509;BMP280;54354;44.724;11.284;2022-12-07T01:38:59;101379.72;;;14.11
67509;BMP280;54354;44.724;11.284;2022-12-07T01:41:28;101384.63;;;14.13
67509;BMP280;54354;44.724;11.284;2022-12-07T01:44:11;101379.25;;;14.16
67509;BMP280;54354;44.724;11.284;2022-12-07T01:46:38;101384.22;;;14.14
67509;BMP280;54354;44.724;11.284;2022-12-07T01:49:06;101386.22;;;14.10
67509;BMP280;54354;44.724;11.284;2022-12-07T01:51:34;101376.59;;;14.16
67509;BMP280;54354;44.724;11.284;2022-12-07T01:54:00;101373.19;;;14.12
67509;BMP280;54354;44.724;11.284;2022-12-07T01:56:26;101377.06;;;14.11
67509;BMP280;54354;44.724;11.284;2022-12-07T01:58:54;101380.19;;;14.06
67509;BMP280;54354;44.724;11.284;2022-12-07T02:01:21;101385.72;;;14.15
67509;BMP280;54354;44.724;11.284;2022-12-07T02:03:47;101381.16;;;14.16
67509;BMP280;54354;44.724;11.284;2022-12-07T02:06:17;101376.22;;;14.14
67509;BMP280;54354;44.724;11.284;2022-12-07T02:08:44;101365.94;;;14.16
67509;BMP280;54354;44.724;11.284;2022-12-07T02:11:11;101374.56;;;14.20
67509;BMP280;54354;44.724;11.284;2022-12-07T02:13:38;101370.41;;;14.19
67509;BMP280;54354;44.724;11.284;2022-12-07T02:21:14;101371.91;;;14.20
67509;BMP280;54354;44.724;11.284;2022-12-07T02:31:41;101355.88;;;14.24
67509;BMP280;54354;44.724;11.284;2022-12-07T02:34:20;101356.19;;;14.26
67509;BMP280;54354;44.724;11.284;2022-12-07T02:36:54;101360.34;;;14.27
67509;BMP280;54354;44.724;11.284;2022-12-07T02:39:36;101352.28;;;14.30
67509;BMP280;54354;44.724;11.284;2022-12-07T02:42:12;101347.38;;;14.29
67509;BMP280;54354;44.724;11.284;2022-12-07T02:44:39;101341.22;;;14.32
67509;BMP280;54354;44.724;11.284;2022-12-07T02:47:09;101336.47;;;14.23
67509;BMP280;54354;44.724;11.284;2022-12-07T02:49:37;101335.72;;;14.23
67509;BMP280;54354;44.724;11.284;2022-12-07T02:52:03;101332.59;;;14.24
67509;BMP280;54354;44.724;11.284;2022-12-07T02:54:29;101335.72;;;14.23
67509;BMP280;54354;44.724;11.284;2022-12-07T02:57:21;101329.16;;;14.27
67509;BMP280;54354;44.724;11.284;2022-12-07T03:10:28;101326.81;;;14.29
67509;BMP280;54354;44.724;11.284;2022-12-07T03:16:22;101326.81;;;14.29
67509;BMP280;54354;44.724;11.284;2022-12-07T03:19:00;101331.13;;;14.23
67509;BMP280;54354;44.724;11.284;2022-12-07T03:21:31;101334.22;;;14.22
67509;BMP280;54354;44.724;11.284;2022-12-07T03:23:58;101336.66;;;14.65
67509;BMP280;54354;44.724;11.284;2022-12-07T03:26:31;101335.56;;;14.30
67509;BMP280;54354;44.724;11.284;2022-12-07T03:29:01;101330.72;;;14.25
67509;BMP280;54354;44.724;11.284;2022-12-07T03:31:33;101327.25;;;14.28
67509;BMP280;54354;44.724;11.284;2022-12-07T03:41:49;101323.31;;;14.32
67509;BMP280;54354;44.724;11.284;2022-12-07T03:44:15;101316.06;;;14.33
67509;BMP280;54354;44.724;11.284;2022-12-07T03:47:04;101309.25;;;14.32
67509;BMP280;54354;44.724;11.284;2022-12-07T03:57:47;101304.34;;;14.30
67509;BMP280;54354;44.724;11.284;2022-12-07T04:00:15;101298.84;;;14.38
67509;BMP280;54354;44.724;11.284;2022-12-07T04:02:41;101295.53;;;14.34
67509;BMP280;54354;44.724;11.284;2022-12-07T04:05:10;101296.66;;;14.32
67509;BMP280;54354;44.724;11.284;2022-12-07T04:07:36;101299.25;;;14.36
67509;BMP280;54354;44.724;11.284;2022-12-07T04:10:02;101287.44;;;14.37
67509;BMP280;54354;44.724;11.284;2022-12-07T04:12:28;101294.69;;;14.37
67509;BMP280;54354;44.724;11.284;2022-12-07T04:14:53;101295.84;;;14.36
67509;BMP280;54354;44.724;11.284;2022-12-07T04:17:19;101282.59;;;14.32
67509;BMP280;54354;44.724;11.284;2022-12-07T04:19:44;101285.38;;;14.28
67509;BMP280;54354;44.724;11.284;2022-12-07T04:22:10;101291.84;;;14.27
67509;BMP280;54354;44.724;11.284;2022-12-07T04:24:35;101287.69;;;14.26
67509;BMP280;54354;44.724;11.284;2022-12-07T04:27:01;101278.59;;;14.24
67509;BMP280;54354;44.724;11.284;2022-12-07T04:29:27;101273.28;;;14.24
67509;BMP280;54354;44.724;11.284;2022-12-07T04:31:52;101277.88;;;14.23
67509;BMP280;54354;44.724;11.284;2022-12-07T04:34:18;101268.38;;;14.22
67509;BMP280;54354;44.724;11.284;2022-12-07T04:36:45;101274.84;;;14.21
67509;BMP280;54354;44.724;11.284;2022-12-07T04:41:44;101277.19;;;14.19
67509;BMP280;54354;44.724;11.284;2022-12-07T04:44:09;101273.00;;;14.18
67509;BMP280;54354;44.724;11.284;2022-12-07T04:46:36;101275.28;;;14.20
67509;BMP280;54354;44.724;11.284;2022-12-07T04:49:02;101278.59;;;14.24
67509;BMP280;54354;44.724;11.284;2022-12-07T04:51:28;101275.19;;;14.23
67509;BMP280;54354;44.724;11.284;2022-12-07T04:53:55;101282.09;;;14.21
67509;BMP280;54354;44.724;11.284;2022-12-07T04:56:22;101278.69;;;14.20
67509;BMP280;54354;44.724;11.284;2022-12-07T04:58:48;101272.97;;;14.22
67509;BMP280;54354;44.724;11.284;2022-12-07T05:01:16;101270.03;;;14.16
67509;BMP280;54354;44.724;11.284;2022-12-07T05:03:42;101275.66;;;14.18
67509;BMP280;54354;44.724;11.284;2022-12-07T05:06:08;101279.09;;;14.19
67509;BMP280;54354;44.724;11.284;2022-12-07T05:08:35;101279.94;;;14.16
67509;BMP280;54354;44.724;11.284;2022-12-07T05:11:01;101275.50;;;14.09
67509;BMP280;54354;44.724;11.284;2022-12-07T05:13:27;101274.75;;;14.09
67509;BMP280;54354;44.724;11.284;2022-12-07T05:15:52;101284.59;;;14.12
67509;BMP280;54354;44.724;11.284;2022-12-07T05:18:18;101284.16;;;14.13
67509;BMP280;54354;44.724;11.284;2022-12-07T05:20:44;101280.00;;;14.12
67509;BMP280;54354;44.724;11.284;2022-12-07T05:23:10;101274.41;;;14.06
67509;BMP280;54354;44.724;11.284;2022-12-07T05:25:36;101280.25;;;14.01
67509;BMP280;54354;44.724;11.284;2022-12-07T05:28:02;101278.81;;;13.97
67509;BMP280;54354;44.724;11.284;2022-12-07T05:30:28;101287.22;;;13.95
67509;BMP280;54354;44.724;11.284;2022-12-07T05:32:53;101289.53;;;13.93
67509;BMP280;54354;44.724;11.284;2022-12-07T05:35:19;101291.13;;;13.91
67509;BMP280;54354;44.724;11.284;2022-12-07T05:37:45;101296.06;;;13.92
67509;BMP280;54354;44.724;11.284;2022-12-07T05:40:11;101296.44;;;13.91
67509;BMP280;54354;44.724;11.284;2022-12-07T05:42:39;101290.03;;;13.88
67509;BMP280;54354;44.724;11.284;2022-12-07T05:45:05;101293.78;;;13.91
67509;BMP280;54354;44.724;11.284;2022-12-07T05:47:31;101301.38;;;13.92
67509;BMP280;54354;44.724;11.284;2022-12-07T05:49:56;101296.81;;;13.93
67509;BMP280;54354;44.724;11.284;2022-12-07T05:52:22;101298.72;;;13.92
67509;BMP280;54354;44.724;11.284;2022-12-07T05:54:48;101301.28;;;13.96
67509;BMP280;54354;44.724;11.284;2022-12-07T05:57:13;101289.38;;;14.00
67509;BMP280;54354;44.724;11.284;2022-12-07T05:59:39;101295.16;;;13.99
67509;BMP280;54354;44.724;11.284;2022-12-07T06:02:08;101293.94;;;14.00
67509;BMP280;54354;44.724;11.284;2022-12-07T06:04:37;101297.63;;;14.06
67509;BMP280;54354;44.724;11.284;2022-12-07T06:07:03;101294.09;;;14.13
67509;BMP280;54354;44.724;11.284;2022-12-07T06:09:29;101295.50;;;14.17
67509;BMP280;54354;44.724;11.284;2022-12-07T06:11:56;101291.75;;;14.15
67509;BMP280;54354;44.724;11.284;2022-12-07T06:14:40;101293.28;;;14.16
67509;BMP280;54354;44.724;11.284;2022-12-07T06:17:06;101296.31;;;14.14
67509;BMP280;54354;44.724;11.284;2022-12-07T06:19:32;101293.28;;;14.16
67509;BMP280;54354;44.724;11.284;2022-12-07T06:21:58;101296.31;;;14.14
67509;BMP280;54354;44.724;11.284;2022-12-07T06:24:24;101289.50;;;14.13
67509;BMP280;54354;44.724;11.284;2022-12-07T06:26:50;101292.50;;;14.15
67509;BMP280;54354;44.724;11.284;2022-12-07T06:29:16;101300.41;;;14.19
67509;BMP280;54354;44.724;11.284;2022-12-07T06:31:42;101291.19;;;14.23
67509;BMP280;54354;44.724;11.284;2022-12-07T06:34:16;101292.41;;;14.19
67509;BMP280;54354;44.724;11.284;2022-12-07T06:36:42;101301.91;;;14.20
67509;BMP280;54354;44.724;11.284;2022-12-07T06:39:08;101303.50;;;14.17
67509;BMP280;54354;44.724;11.284;2022-12-07T06:41:38;101297.44;;;14.17
67509;BMP280;54354;44.724;11.284;2022-12-07T06:44:07;101300.41;;;14.19
67509;BMP280;54354;44.724;11.284;2022-12-07T06:46:33;101295.31;;;14.24
67509;BMP280;54354;44.724;11.284;2022-12-07T06:49:00;101300.50;;;14.31
67509;BMP280;54354;44.724;11.284;2022-12-07T06:51:26;101306.19;;;14.34
67509;BMP280;54354;44.724;11.284;2022-12-07T06:53:51;101298.94;;;14.34
67509;BMP280;54354;44.724;11.284;2022-12-07T06:56:17;101295.53;;;14.34
67509;BMP280;54354;44.724;11.284;2022-12-07T06:58:42;101296.66;;;14.32
67509;BMP280;54354;44.724;11.284;2022-12-07T07:01:13;101297.50;;;14.29
67509;BMP280;54354;44.724;11.284;2022-12-07T07:03:38;101303.75;;;14.72
67509;BMP280;54354;44.724;11.284;2022-12-07T07:06:05;101306.63;;;14.48
67509;BMP280;54354;44.724;11.284;2022-12-07T07:08:31;101310.50;;;14.44
67509;BMP280;54354;44.724;11.284;2022-12-07T07:10:56;101313.91;;;14.44
67509;BMP280;54354;44.724;11.284;2022-12-07T07:13:22;101307.41;;;14.45
67509;BMP280;54354;44.724;11.284;2022-12-07T07:15:47;101319.16;;;14.48
67509;BMP280;54354;44.724;11.284;2022-12-07T07:18:13;101316.50;;;14.48
67509;BMP280;54354;44.724;11.284;2022-12-07T07:20:38;101317.28;;;14.48
67509;BMP280;54354;44.724;11.284;2022-12-07T07:23:04;101326.47;;;14.44
67509;BMP280;54354;44.724;11.284;2022-12-07T07:25:30;101327.66;;;14.43
67509;BMP280;54354;44.724;11.284;2022-12-07T07:27:56;101329.63;;;14.39
67509;BMP280;54354;44.724;11.284;2022-12-07T07:30:23;101337.38;;;14.33
67509;BMP280;54354;44.724;11.284;2022-12-07T07:32:48;101346.88;;;14.34
67509;BMP280;54354;44.724;11.284;2022-12-07T07:35:14;101350.22;;;14.38
67509;BMP280;54354;44.724;11.284;2022-12-07T07:37:40;101348.22;;;14.42
67509;BMP280;54354;44.724;11.284;2022-12-07T07:40:07;101350.47;;;14.44
67509;BMP280;54354;44.724;11.284;2022-12-07T07:42:32;101349.16;;;14.52
67509;BMP280;54354;44.724;11.284;2022-12-07T07:44:58;101346.06;;;14.53
67509;BMP280;54354;44.724;11.284;2022-12-07T07:47:23;101359.72;;;14.55
67509;BMP280;54354;44.724;11.284;2022-12-07T07:49:49;101347.88;;;14.56
67509;BMP280;54354;44.724;11.284;2022-12-07T07:52:15;101353.91;;;14.61
67509;BMP280;54354;44.724;11.284;2022-12-07T07:54:40;101351.16;;;14.64
67509;BMP280;54354;44.724;11.284;2022-12-07T07:57:06;101345.47;;;14.62
67509;BMP280;54354;44.724;11.284;2022-12-07T07:59:31;101344.41;;;14.59
67509;BMP280;54354;44.724;11.284;2022-12-07T08:01:57;101353.56;;;14.58
67509;BMP280;54354;44.724;11.284;2022-12-07T08:04:22;101356.97;;;14.59
67509;BMP280;54354;44.724;11.284;2022-12-07T08:06:48;101356.97;;;14.59
67509;BMP280;54354;44.724;11.284;2022-12-07T08:09:14;101362.38;;;14.55
67509;BMP280;54354;44.724;11.284;2022-12-07T08:11:39;101365.16;;;14.52
67509;BMP280;54354;44.724;11.284;2022-12-07T08:14:05;101359.56;;;14.46
67509;BMP280;54354;44.724;11.284;2022-12-07T08:16:30;101373.25;;;14.48
67509;BMP280;54354;44.724;11.284;2022-12-07T08:18:57;101372.03;;;14.49
67509;BMP280;54354;44.724;11.284;2022-12-07T08:21:22;101372.78;;;14.50
67509;BMP280;54354;44.724;11.284;2022-12-07T08:23:48;101378.56;;;14.48
67509;BMP280;54354;44.724;11.284;2022-12-07T08:26:15;101375.91;;;14.48
67509;BMP280;54354;44.724;11.284;2022-12-07T08:28:41;101378.47;;;14.52
67509;BMP280;54354;44.724;11.284;2022-12-07T08:31:16;101376.19;;;14.50
67509;BMP280;54354;44.724;11.284;2022-12-07T08:33:45;101378.88;;;14.50
67509;BMP280;54354;44.724;11.284;2022-12-07T08:36:12;101379.97;;;14.53
67509;BMP280;54354;44.724;11.284;2022-12-07T08:38:39;101381.22;;;14.48
67509;BMP280;54354;44.724;11.284;2022-12-07T08:41:06;101377.78;;;14.48
67509;BMP280;54354;44.724;11.284;2022-12-07T08:43:32;101380.03;;;14.49
67509;BMP280;54354;44.724;11.284;2022-12-07T08:46:35;101379.81;;;14.60
67509;BMP280;54354;44.724;11.284;2022-12-07T08:49:16;101377.56;;;14.58
67509;BMP280;54354;44.724;11.284;2022-12-07T08:51:43;101381.22;;;14.65
67509;BMP280;54354;44.724;11.284;2022-12-07T08:54:12;101381.38;;;14.57
67509;BMP280;54354;44.724;11.284;2022-12-07T08:56:39;101389.63;;;14.63
67509;BMP280;54354;44.724;11.284;2022-12-07T08:59:06;101387.78;;;14.60
67509;BMP280;54354;44.724;11.284;2022-12-07T09:01:32;101384.72;;;14.62
67509;BMP280;54354;44.724;11.284;2022-12-07T09:03:58;101391.53;;;14.63
67509;BMP280;54354;44.724;11.284;2022-12-07T09:06:24;101389.97;;;14.65
67509;BMP280;54354;44.724;11.284;2022-12-07T09:08:54;101393.44;;;14.62
67509;BMP280;54354;44.724;11.284;2022-12-07T09:11:21;101389.97;;;14.65
67509;BMP280;54354;44.724;11.284;2022-12-07T09:13:47;101395.31;;;14.65
67509;BMP280;54354;44.724;11.284;2022-12-07T09:16:13;101397.97;;;14.65
67509;BMP280;54354;44.724;11.284;2022-12-07T09:18:38;101389.53;;;14.67
67509;BMP280;54354;44.724;11.284;2022-12-07T09:21:04;101392.22;;;14.67
67509;BMP280;54354;44.724;11.284;2022-12-07T09:23:30;101387.63;;;14.67
67509;BMP280;54354;44.724;11.284;2022-12-07T09:26:02;101377.72;;;14.68
67509;BMP280;54354;44.724;11.284;2022-12-07T09:28:28;101385.53;;;14.75
67509;BMP280;54354;44.724;11.284;2022-12-07T09:30:54;101391.66;;;14.75
67509;BMP280;54354;44.724;11.284;2022-12-07T09:33:19;101388.19;;;14.75
67509;BMP280;54354;44.724;11.284;2022-12-07T09:35:49;101390.88;;;14.75
67509;BMP280;54354;44.724;11.284;2022-12-07T09:38:14;101397.31;;;14.77
67509;BMP280;54354;44.724;11.284;2022-12-07T09:40:41;101380.63;;;14.73
67509;BMP280;54354;44.724;11.284;2022-12-07T09:43:23;101382.88;;;14.75
67509;BMP280;54354;44.724;11.284;2022-12-07T09:45:53;101376.19;;;15.16
67509;BMP280;54354;44.724;11.284;2022-12-07T09:48:31;101376.03;;;14.90
67509;BMP280;54354;44.724;11.284;2022-12-07T09:50:59;101370.22;;;14.79
67509;BMP280;54354;44.724;11.284;2022-12-07T09:53:28;101383.22;;;14.77
67509;BMP280;54354;44.724;11.284;2022-12-07T09:55:55;101384.97;;;14.83
67509;BMP280;54354;44.724;11.284;2022-12-07T09:58:26;101372.88;;;14.79
67509;BMP280;54354;44.724;11.284;2022-12-07T10:00:58;101376.28;;;14.79
67509;BMP280;54354;44.724;11.284;2022-12-07T10:03:26;101379.72;;;14.80
67509;BMP280;54354;44.724;11.284;2022-12-07T10:05:52;101368.13;;;14.86
67509;BMP280;54354;44.724;11.284;2022-12-07T10:08:18;101367.97;;;14.94
67509;BMP280;54354;44.724;11.284;2022-12-07T10:10:46;101369.38;;;14.98
67509;BMP280;54354;44.724;11.284;2022-12-07T10:13:18;101365.69;;;15.08
67509;BMP280;54354;44.724;11.284;2022-12-07T10:23:27;101364.47;;;15.26
67509;BMP280;54354;44.724;11.284;2022-12-07T10:25:52;101351.91;;;15.26
67509;BMP280;54354;44.724;11.284;2022-12-07T10:28:20;101355.00;;;15.25
67509;BMP280;54354;44.724;11.284;2022-12-07T10:30:59;101357.31;;;15.23
67509;BMP280;54354;44.724;11.284;2022-12-07T10:35:57;101353.78;;;15.26
67509;BMP280;54354;44.724;11.284;2022-12-07T10:38:28;101349.09;;;15.17
67509;BMP280;54354;44.724;11.284;2022-12-07T10:41:05;101346.94;;;15.12
67509;BMP280;54354;44.724;11.284;2022-12-07T10:43:31;101346.59;;;15.10
67509;BMP280;54354;44.724;11.284;2022-12-07T10:49:10;101338.03;;;15.02
67509;BMP280;54354;44.724;11.284;2022-12-07T10:51:51;101332.88;;;14.95
67509;BMP280;54354;44.724;11.284;2022-12-07T10:57:29;101322.22;;;14.95
67509;BMP280;54354;44.724;11.284;2022-12-07T11:00:08;101314.22;;;14.95
67509;BMP280;54354;44.724;11.284;2022-12-07T11:03:14;101314.03;;;15.02
67509;BMP280;54354;44.724;11.284;2022-12-07T11:09:03;101305.34;;;14.98
67509;BMP280;54354;44.724;11.284;2022-12-07T11:11:43;101309.53;;;14.99
67509;BMP280;54354;44.724;11.284;2022-12-07T11:15:22;101301.91;;;15.14
67509;BMP280;54354;44.724;11.284;2022-12-07T11:20:42;101310.56;;;15.18
67509;BMP280;54354;44.724;11.284;2022-12-07T11:23:55;101297.97;;;15.19
67509;BMP280;54354;44.724;11.284;2022-12-07T11:35:26;101288.03;;;15.19
67509;BMP280;54354;44.724;11.284;2022-12-07T11:38:03;101286.09;;;15.20
67509;BMP280;54354;44.724;11.284;2022-12-07T11:40:36;101280.94;;;15.29
67509;BMP280;54354;44.724;11.284;2022-12-07T11:45:52;101281.69;;;15.42
67509;BMP280;54354;44.724;11.284;2022-12-07T11:48:28;101280.97;;;15.54
67509;BMP280;54354;44.724;11.284;2022-12-07T11:50:57;101280.44;;;15.59
67509;BMP280;54354;44.724;11.284;2022-12-07T11:53:32;101281.53;;;15.62
67509;BMP280;54354;44.724;11.284;2022-12-07T11:56:13;101276.28;;;15.71
67509;BMP280;54354;44.724;11.284;2022-12-07T12:03:38;101273.00;;;15.80
67509;BMP280;54354;44.724;11.284;2022-12-07T12:06:05;101280.38;;;15.88
67509;BMP280;54354;44.724;11.284;2022-12-07T12:08:42;101266.34;;;15.84
67509;BMP280;54354;44.724;11.284;2022-12-07T12:19:59;101259.00;;;15.88
67509;BMP280;54354;44.724;11.284;2022-12-07T12:22:47;101258.34;;;15.84
67509;BMP280;54354;44.724;11.284;2022-12-07T12:25:22;101255.69;;;15.84
67509;BMP280;54354;44.724;11.284;2022-12-07T12:27:50;101257.81;;;15.89
67509;BMP280;54354;44.724;11.284;2022-12-07T12:30:37;101260.78;;;16.04
67509;BMP280;54354;44.724;11.284;2022-12-07T12:33:23;101249.66;;;16.06
67509;BMP280;54354;44.724;11.284;2022-12-07T12:36:24;101252.13;;;16.13
67509;BMP280;54354;44.724;11.284;2022-12-07T12:44:01;101244.75;;;16.17
67509;BMP280;54354;44.724;11.284;2022-12-07T12:54:24;101241.94;;;16.20
67509;BMP280;54354;44.724;11.284;2022-12-07T12:57:04;101239.41;;;16.04
67509;BMP280;54354;44.724;11.284;2022-12-07T12:59:42;101228.97;;;15.97
67509;BMP280;54354;44.724;11.284;2022-12-07T13:02:32;101230.69;;;15.91
67509;BMP280;54354;44.724;11.284;2022-12-07T13:15:56;101213.03;;;15.81
67509;BMP280;54354;44.724;11.284;2022-12-07T13:18:40;101223.63;;;15.84
67509;BMP280;54354;44.724;11.284;2022-12-07T13:26:35;101212.06;;;15.87
67509;BMP280;54354;44.724;11.284;2022-12-07T13:31:42;101214.84;;;15.97
67509;BMP280;54354;44.724;11.284;2022-12-07T13:34:38;101210.97;;;16.10
67509;BMP280;54354;44.724;11.284;2022-12-07T13:37:26;101218.25;;;16.10
67509;BMP280;54354;44.724;11.284;2022-12-07T13:39:55;101215.59;;;16.10
67509;BMP280;54354;44.724;11.284;2022-12-07T13:42:29;101212.91;;;16.10
67509;BMP280;54354;44.724;11.284;2022-12-07T13:44:57;101204.47;;;16.11
67509;BMP280;54354;44.724;11.284;2022-12-07T13:49:55;101207.13;;;16.11
67509;BMP280;54354;44.724;11.284;2022-12-07T13:52:25;101217.06;;;16.11
67509;BMP280;54354;44.724;11.284;2022-12-07T13:55:00;101205.31;;;16.08
67509;BMP280;54354;44.724;11.284;2022-12-07T13:57:29;101198.69;;;16.00
67509;BMP280;54354;44.724;11.284;2022-12-07T14:00:00;101197.97;;;16.00
67509;BMP280;54354;44.724;11.284;2022-12-07T14:02:28;101202.34;;;15.93
67509;BMP280;54354;44.724;11.284;2022-12-07T14:05:15;101204.19;;;15.97
67509;BMP280;54354;44.724;11.284;2022-12-07T14:10:33;101200.84;;;15.92
67509;BMP280;54354;44.724;11.284;2022-12-07T14:13:01;101195.94;;;15.91
67509;BMP280;54354;44.724;11.284;2022-12-07T14:15:29;101191.91;;;15.86
67509;BMP280;54354;44.724;11.284;2022-12-07T14:17:57;101199.25;;;15.82
67509;BMP280;54354;44.724;11.284;2022-12-07T14:23:00;101202.50;;;15.77
67509;BMP280;54354;44.724;11.284;2022-12-07T14:25:45;101203.03;;;15.72
67509;BMP280;54354;44.724;11.284;2022-12-07T14:28:32;101212.53;;;15.73
67509;BMP280;54354;44.724;11.284;2022-12-07T14:30:59;101196.72;;;15.66
67509;BMP280;54354;44.724;11.284;2022-12-07T14:33:25;101208.16;;;15.66
67509;BMP280;54354;44.724;11.284;2022-12-07T14:35:51;101212.00;;;15.65
67509;BMP280;54354;44.724;11.284;2022-12-07T14:38:24;101206.00;;;15.61
67509;BMP280;54354;44.724;11.284;2022-12-07T14:40:51;101201.84;;;15.60
67509;BMP280;54354;44.724;11.284;2022-12-07T14:43:18;101202.19;;;15.62
67509;BMP280;54354;44.724;11.284;2022-12-07T14:45:45;101215.53;;;15.62
67509;BMP280;54354;44.724;11.284;2022-12-07T14:48:11;101217.56;;;15.58
67509;BMP280;54354;44.724;11.284;2022-12-07T14:50:48;101217.38;;;15.53
67509;BMP280;54354;44.724;11.284;2022-12-07T14:53:17;101220.09;;;15.49
67509;BMP280;54354;44.724;11.284;2022-12-07T14:55:43;101224.69;;;15.49
67509;BMP280;54354;44.724;11.284;2022-12-07T14:58:14;101226.91;;;15.37
67509;BMP280;54354;44.724;11.284;2022-12-07T15:00:40;101231.97;;;15.35
67509;BMP280;54354;44.724;11.284;2022-12-07T15:03:06;101235.88;;;15.31
67509;BMP280;54354;44.724;11.284;2022-12-07T15:05:32;101235.59;;;15.29
67509;BMP280;54354;44.724;11.284;2022-12-07T15:07:58;101230.31;;;15.25
67509;BMP280;54354;44.724;11.284;2022-12-07T15:10:27;101224.47;;;15.18
67509;BMP280;54354;44.724;11.284;2022-12-07T15:12:56;101225.22;;;15.18
67509;BMP280;54354;44.724;11.284;2022-12-07T15:15:41;101227.41;;;15.20
67509;BMP280;54354;44.724;11.284;2022-12-07T15:18:07;101235.22;;;15.14
67509;BMP280;54354;44.724;11.284;2022-12-07T15:20:32;101236.41;;;15.13
67509;BMP280;54354;44.724;11.284;2022-12-07T15:22:58;101236.06;;;15.11
67509;BMP280;54354;44.724;11.284;2022-12-07T15:25:24;101234.25;;;15.08
67509;BMP280;54354;44.724;11.284;2022-12-07T15:27:49;101235.50;;;15.03
67509;BMP280;54354;44.724;11.284;2022-12-07T15:30:15;101229.19;;;14.97
67509;BMP280;54354;44.724;11.284;2022-12-07T15:32:41;101228.22;;;14.91
67509;BMP280;54354;44.724;11.284;2022-12-07T15:35:07;101236.31;;;14.88
67509;BMP280;54354;44.724;11.284;2022-12-07T15:37:32;101240.56;;;14.85
67509;BMP280;54354;44.724;11.284;2022-12-07T15:40:06;101241.53;;;14.78
67509;BMP280;54354;44.724;11.284;2022-12-07T15:42:33;101242.25;;;14.79
67509;BMP280;54354;44.724;11.284;2022-12-07T15:44:59;101237.34;;;14.77
67509;BMP280;54354;44.724;11.284;2022-12-07T15:47:39;101237.34;;;14.77
67509;BMP280;54354;44.724;11.284;2022-12-07T15:50:12;101245.34;;;14.77
67509;BMP280;54354;44.724;11.284;2022-12-07T15:52:39;101241.19;;;14.76
67509;BMP280;54354;44.724;11.284;2022-12-07T15:55:04;101239.75;;;14.72
67509;BMP280;54354;44.724;11.284;2022-12-07T15:57:31;101236.84;;;14.66
67509;BMP280;54354;44.724;11.284;2022-12-07T15:59:57;101237.59;;;14.67
67509;BMP280;54354;44.724;11.284;2022-12-07T16:02:23;101229.59;;;14.67
67509;BMP280;54354;44.724;11.284;2022-12-07T16:04:52;101228.44;;;14.68
67509;BMP280;54354;44.724;11.284;2022-12-07T16:07:21;101226.63;;;14.65
67509;BMP280;54354;44.724;11.284;2022-12-07T16:09:47;101230.47;;;14.64